Time;durP1;ratioP1;P1;durP2;ratioP2;P2;SDS_P1;SDS_P2;PMS_P1;PMS_P2;Temp;Humidity;BMP_temperature;BMP_pressure;BME280_temperature;BME280_humidity;BME280_pressure;Samples;Min_cycle;Max_cycle;Signal;HPM_P1;HPM_P2
2022/03/12 00:01:06;;;;;;;2.70;2.00;;;20.40;30.50;;;;;;5114787;28;20054;-80
2022/03/12 00:03:32;;;;;;;2.15;1.95;;;20.40;30.50;;;;;;5115100;28;20051;-80
2022/03/12 00:06:02;;;;;;;3.03;2.15;;;20.40;30.50;;;;;;5133086;28;20055;-80
2022/03/12 00:08:44;;;;;;;2.72;2.45;;;20.40;30.50;;;;;;5133320;28;20051;-80
2022/03/12 00:11:17;;;;;;;3.60;2.53;;;20.40;30.50;;;;;;5133048;28;20130;-80
2022/03/12 00:13:44;;;;;;;2.78;2.00;;;20.40;30.50;;;;;;5133078;28;20055;-80
2022/03/12 00:16:14;;;;;;;2.22;2.03;;;20.40;30.50;;;;;;5133161;28;20051;-80
2022/03/12 00:18:42;;;;;;;2.92;2.35;;;20.40;30.50;;;;;;5132975;27;20495;-80
2022/03/12 00:21:12;;;;;;;2.95;2.55;;;20.40;30.50;;;;;;5135614;28;20399;-80
2022/03/12 00:23:38;;;;;;;3.00;2.38;;;20.40;30.50;;;;;;5136531;28;20119;-81
2022/03/12 00:26:04;;;;;;;2.80;2.38;;;20.40;30.60;;;;;;5136525;28;20118;-80
2022/03/12 00:28:29;;;;;;;3.20;2.25;;;20.40;30.50;;;;;;5136312;28;20047;-81
2022/03/12 00:30:55;;;;;;;3.50;2.55;;;20.40;30.50;;;;;;5136444;28;20043;-80
2022/03/12 00:33:22;;;;;;;2.88;2.10;;;20.30;30.50;;;;;;5136298;28;20505;-81
2022/03/12 00:35:50;;;;;;;2.45;2.22;;;20.40;30.60;;;;;;5117195;28;20448;-80
2022/03/12 00:38:17;;;;;;;2.50;2.20;;;20.40;30.60;;;;;;5136266;28;20050;-80
2022/03/12 00:40:43;;;;;;;2.97;2.15;;;20.40;30.60;;;;;;5136319;28;20051;-81
2022/03/12 00:43:11;;;;;;;3.05;2.58;;;20.40;30.60;;;;;;5136469;28;20054;-80
2022/03/12 00:45:41;;;;;;;2.70;2.30;;;20.30;30.50;;;;;;5136516;28;20086;-81
2022/03/12 00:48:06;;;;;;;3.67;2.35;;;20.40;30.50;;;;;;5136113;28;20482;-81
2022/03/12 00:50:33;;;;;;;2.35;2.05;;;20.40;30.50;;;;;;5136070;28;20110;-80
2022/03/12 00:52:59;;;;;;;2.63;2.35;;;20.40;30.60;;;;;;5117602;28;20201;-80
2022/03/12 00:55:24;;;;;;;2.28;2.08;;;20.40;30.60;;;;;;5135982;28;20134;-81
2022/03/12 00:57:50;;;;;;;2.55;2.28;;;20.40;30.60;;;;;;5116739;28;20059;-80
2022/03/12 01:00:19;;;;;;;2.35;1.75;;;20.40;30.60;;;;;;5116136;28;20079;-80
2022/03/12 01:02:46;;;;;;;2.20;1.83;;;20.30;30.50;;;;;;5115982;28;20376;-80
2022/03/12 01:05:15;;;;;;;2.28;2.08;;;20.40;30.50;;;;;;5136088;28;20103;-80
2022/03/12 01:07:41;;;;;;;2.30;2.00;;;20.30;30.50;;;;;;5135646;28;20081;-80
2022/03/12 01:10:06;;;;;;;2.15;1.92;;;20.40;30.60;;;;;;5117204;28;20084;-80
2022/03/12 01:12:33;;;;;;;2.88;2.22;;;20.40;30.50;;;;;;5135707;28;20505;-81
2022/03/12 01:15:01;;;;;;;2.50;2.28;;;20.30;30.50;;;;;;5135743;28;20140;-80
2022/03/12 01:17:28;;;;;;;2.85;2.13;;;20.30;30.50;;;;;;5117434;28;20050;-81
2022/03/12 01:19:56;;;;;;;2.13;1.80;;;20.30;30.50;;;;;;5117149;28;20422;-80
2022/03/12 01:22:23;;;;;;;3.50;2.10;;;20.40;30.60;;;;;;5135499;28;20134;-80
2022/03/12 01:24:50;;;;;;;2.65;1.98;;;20.30;30.50;;;;;;5135454;28;20039;-81
2022/03/12 01:27:16;;;;;;;3.20;2.45;;;20.30;30.50;;;;;;5135684;28;20089;-81
2022/03/12 01:29:42;;;;;;;2.60;2.17;;;20.30;30.50;;;;;;5116823;28;20103;-80
2022/03/12 01:32:11;;;;;;;2.80;2.30;;;20.30;30.50;;;;;;5115379;28;20435;-80
2022/03/12 01:34:37;;;;;;;2.58;2.25;;;20.30;30.50;;;;;;5135301;28;20050;-80
2022/03/12 01:37:03;;;;;;;2.55;2.03;;;20.30;30.60;;;;;;5135267;28;20448;-80
2022/03/12 01:39:29;;;;;;;2.78;2.10;;;20.30;30.60;;;;;;5135436;28;21211;-80
2022/03/12 01:41:54;;;;;;;2.30;2.10;;;20.30;30.50;;;;;;5135002;28;20051;-80
2022/03/12 01:44:21;;;;;;;3.13;2.50;;;20.30;30.60;;;;;;5116778;28;20063;-80
2022/03/12 01:46:48;;;;;;;2.35;2.00;;;20.30;30.60;;;;;;5135186;28;20051;-80
2022/03/12 01:49:16;;;;;;;2.75;1.98;;;20.30;30.60;;;;;;5115257;28;20044;-80
2022/03/12 01:51:44;;;;;;;2.67;2.20;;;20.30;30.60;;;;;;5099691;28;20047;-81
2022/03/12 01:54:10;;;;;;;2.92;2.28;;;20.30;30.70;;;;;;5135060;28;20051;-80
2022/03/12 01:56:38;;;;;;;2.28;2.05;;;20.30;30.60;;;;;;5134966;28;20046;-80
2022/03/12 01:59:04;;;;;;;3.67;2.30;;;20.30;30.60;;;;;;5134840;28;20128;-80
2022/03/12 02:01:31;;;;;;;3.00;2.03;;;20.30;30.60;;;;;;5115370;28;20126;-80
2022/03/12 02:03:59;;;;;;;2.58;2.15;;;20.30;30.60;;;;;;5116849;28;20133;-80
2022/03/12 02:06:27;;;;;;;2.22;1.90;;;20.30;31.20;;;;;;5135226;28;20105;-80
2022/03/12 02:08:58;;;;;;;2.53;2.28;;;20.30;30.60;;;;;;5134647;28;20070;-80
2022/03/12 02:11:29;;;;;;;3.83;2.38;;;20.30;30.70;;;;;;5099402;28;20053;-80
2022/03/12 02:13:59;;;;;;;3.47;2.67;;;20.30;30.60;;;;;;5134894;28;20051;-80
2022/03/12 02:16:26;;;;;;;2.90;2.20;;;20.30;30.70;;;;;;5135138;28;20380;-80
2022/03/12 02:18:52;;;;;;;2.10;1.90;;;20.30;30.60;;;;;;5134725;28;20443;-80
2022/03/12 02:21:43;;;;;;;2.42;1.95;;;20.30;30.70;;;;;;5099013;28;20534;-80
2022/03/12 02:24:15;;;;;;;2.78;2.40;;;20.30;30.70;;;;;;5116104;28;20051;-80
2022/03/12 02:26:43;;;;;;;2.90;2.30;;;20.30;30.70;;;;;;5134531;28;20066;-80
2022/03/12 02:29:18;;;;;;;2.45;2.25;;;20.30;30.70;;;;;;5134362;28;20126;-80
2022/03/12 02:31:50;;;;;;;2.30;2.03;;;20.30;30.70;;;;;;5112373;28;20051;-80
2022/03/12 02:34:24;;;;;;;2.83;2.40;;;20.30;30.70;;;;;;5116069;28;20047;-80
2022/03/12 02:36:55;;;;;;;2.45;2.08;;;20.30;30.70;;;;;;5114736;28;20059;-81
2022/03/12 02:39:21;;;;;;;2.90;2.15;;;20.30;30.70;;;;;;5116214;28;20138;-80
2022/03/12 02:41:47;;;;;;;2.40;1.95;;;20.30;30.70;;;;;;5133976;27;20100;-80
2022/03/12 02:44:22;;;;;;;3.15;2.35;;;20.30;30.70;;;;;;5133682;28;20429;-80
2022/03/12 02:47:13;;;;;;;3.03;2.20;;;20.30;30.70;;;;;;5134532;28;20058;-80
2022/03/12 02:49:49;;;;;;;2.75;1.80;;;20.30;30.70;;;;;;5134350;28;20059;-81
2022/03/12 02:52:16;;;;;;;2.30;2.10;;;20.30;30.70;;;;;;5134008;28;20070;-81
2022/03/12 02:54:43;;;;;;;2.10;1.90;;;20.30;30.80;;;;;;5134047;28;20089;-80
2022/03/12 02:57:12;;;;;;;2.00;1.80;;;20.30;30.70;;;;;;5133688;28;20079;-80
2022/03/12 02:59:40;;;;;;;2.17;1.98;;;20.30;30.80;;;;;;5134045;28;20054;-80
2022/03/12 03:02:10;;;;;;;3.72;2.17;;;20.30;30.80;;;;;;5133830;28;20043;-81
2022/03/12 03:04:37;;;;;;;2.63;2.10;;;20.30;30.70;;;;;;5133960;28;20074;-80
2022/03/12 03:07:04;;;;;;;2.88;2.13;;;20.30;30.80;;;;;;5114599;28;20519;-80
2022/03/12 03:09:30;;;;;;;2.13;1.92;;;20.30;30.70;;;;;;5114100;28;20055;-81
2022/03/12 03:11:57;;;;;;;2.05;1.85;;;20.30;30.70;;;;;;5113448;28;20441;-80
2022/03/12 03:14:26;;;;;;;2.20;1.73;;;20.30;30.70;;;;;;5133804;28;20108;-80
2022/03/12 03:16:58;;;;;;;3.13;2.28;;;20.30;30.70;;;;;;5133579;28;20640;-81
2022/03/12 03:19:26;;;;;;;3.30;2.30;;;20.30;30.70;;;;;;5133922;28;20055;-80
2022/03/12 03:21:55;;;;;;;2.08;1.88;;;20.30;30.70;;;;;;5133688;28;20108;-80
2022/03/12 03:24:22;;;;;;;2.10;1.85;;;20.30;30.80;;;;;;5114851;28;20063;-81
2022/03/12 03:26:47;;;;;;;2.63;2.05;;;20.30;30.80;;;;;;5113982;28;20453;-80
2022/03/12 03:29:15;;;;;;;2.00;1.80;;;20.30;30.80;;;;;;5133411;28;20055;-81
2022/03/12 03:31:41;;;;;;;2.30;2.00;;;20.30;30.80;;;;;;5133861;28;20086;-81
2022/03/12 03:34:07;;;;;;;2.20;2.00;;;20.30;30.80;;;;;;5115207;28;20453;-80
2022/03/12 03:36:33;;;;;;;2.40;2.03;;;20.30;30.80;;;;;;5133582;28;20055;-80
2022/03/12 03:38:59;;;;;;;2.83;2.15;;;20.30;30.80;;;;;;5113110;28;20056;-80
2022/03/12 03:41:25;;;;;;;3.08;2.20;;;20.30;30.80;;;;;;5133770;28;20108;-80
2022/03/12 03:43:52;;;;;;;2.47;2.28;;;20.30;30.80;;;;;;5133468;28;20117;-80
2022/03/12 03:46:22;;;;;;;2.20;2.00;;;20.30;30.80;;;;;;5115095;28;20054;-80
2022/03/12 03:48:51;;;;;;;2.25;2.05;;;20.30;30.80;;;;;;5133603;28;20047;-81
2022/03/12 03:51:17;;;;;;;2.72;2.22;;;20.30;30.70;;;;;;5133695;28;20073;-80
2022/03/12 03:53:43;;;;;;;2.33;2.10;;;20.30;30.80;;;;;;5098579;28;20424;-80
2022/03/12 03:56:09;;;;;;;2.40;2.00;;;20.40;30.80;;;;;;5137013;28;20051;-80
2022/03/12 03:58:35;;;;;;;2.10;1.90;;;20.40;30.80;;;;;;5118323;28;20051;-80
2022/03/12 04:01:12;;;;;;;2.38;2.10;;;20.40;30.80;;;;;;5116853;28;20410;-80
2022/03/12 04:03:41;;;;;;;2.35;2.15;;;20.40;30.80;;;;;;5137194;28;20058;-80
2022/03/12 04:06:06;;;;;;;3.10;2.47;;;20.30;30.70;;;;;;5136914;28;20043;-80
2022/03/12 04:08:34;;;;;;;2.30;1.90;;;20.40;30.80;;;;;;5136912;28;20081;-80
2022/03/12 04:11:04;;;;;;;2.55;2.13;;;20.30;30.70;;;;;;5136611;28;20482;-80
2022/03/12 04:13:31;;;;;;;3.03;1.70;;;20.40;30.80;;;;;;5136837;28;20051;-80
2022/03/12 04:15:59;;;;;;;2.70;2.08;;;20.40;30.80;;;;;;5136917;28;20047;-80
2022/03/12 04:18:28;;;;;;;2.67;2.33;;;20.30;30.80;;;;;;5136529;28;20039;-80
2022/03/12 04:20:54;;;;;;;2.22;2.00;;;20.40;30.80;;;;;;5116673;28;20087;-80
2022/03/12 04:23:24;;;;;;;2.28;1.77;;;20.40;30.80;;;;;;5136632;28;20074;-80
2022/03/12 04:25:52;;;;;;;2.43;2.20;;;20.40;30.80;;;;;;5136935;28;20104;-80
2022/03/12 04:28:19;;;;;;;2.42;1.92;;;20.40;30.70;;;;;;5136797;28;20066;-80
2022/03/12 04:30:45;;;;;;;2.05;1.80;;;20.40;30.70;;;;;;5136377;28;20055;-80
2022/03/12 04:33:14;;;;;;;2.65;2.30;;;20.40;30.80;;;;;;5136398;28;20075;-80
2022/03/12 04:35:41;;;;;;;2.45;2.00;;;20.40;30.70;;;;;;5136412;28;20093;-80
2022/03/12 04:38:11;;;;;;;2.08;1.88;;;20.50;30.80;;;;;;5136374;28;20065;-80
2022/03/12 04:40:40;;;;;;;2.47;2.28;;;20.50;30.80;;;;;;5136229;28;20088;-80
2022/03/12 04:43:07;;;;;;;2.35;1.95;;;20.50;30.70;;;;;;5118102;28;20051;-80
2022/03/12 04:45:33;;;;;;;2.60;2.08;;;20.50;30.70;;;;;;5136212;28;20043;-81
2022/03/12 04:47:59;;;;;;;2.50;2.22;;;20.50;30.70;;;;;;5136086;28;20051;-81
2022/03/12 04:50:25;;;;;;;2.78;2.05;;;20.50;30.70;;;;;;5117630;28;20051;-80
2022/03/12 04:52:52;;;;;;;2.00;1.80;;;20.50;30.70;;;;;;5136314;28;20054;-81
2022/03/12 04:55:22;;;;;;;2.08;1.88;;;20.50;30.70;;;;;;5136063;28;20101;-80
2022/03/12 04:57:49;;;;;;;4.10;2.20;;;20.50;30.70;;;;;;5135938;28;20065;-80
2022/03/12 05:00:20;;;;;;;2.20;2.00;;;20.50;30.70;;;;;;5135930;28;20055;-80
2022/03/12 05:02:47;;;;;;;2.00;1.80;;;20.50;30.70;;;;;;5135835;28;20055;-80
2022/03/12 05:05:14;;;;;;;2.80;2.08;;;20.50;30.70;;;;;;5135089;27;20051;-80
2022/03/12 05:07:44;;;;;;;2.20;2.00;;;20.50;30.70;;;;;;5135596;28;20057;-80
2022/03/12 05:10:11;;;;;;;2.00;1.80;;;20.50;30.70;;;;;;5117769;28;20079;-80
2022/03/12 05:12:39;;;;;;;2.00;1.80;;;20.50;30.70;;;;;;5135790;28;20049;-80
2022/03/12 05:15:06;;;;;;;2.05;1.85;;;20.50;30.70;;;;;;5117321;28;20521;-80
2022/03/12 05:17:38;;;;;;;2.50;1.90;;;20.50;30.70;;;;;;5135409;28;20137;-81
2022/03/12 05:20:07;;;;;;;2.15;1.90;;;20.50;30.70;;;;;;5117098;28;20043;-80
2022/03/12 05:22:32;;;;;;;2.25;2.05;;;20.50;30.70;;;;;;5116030;28;20509;-80
2022/03/12 05:24:58;;;;;;;2.85;2.25;;;20.60;30.70;;;;;;5136224;28;20126;-80
2022/03/12 05:27:26;;;;;;;2.05;1.85;;;20.60;30.70;;;;;;5135486;28;20375;-80
2022/03/12 05:29:54;;;;;;;1.90;1.70;;;20.60;30.70;;;;;;5135433;28;20047;-80
2022/03/12 05:32:19;;;;;;;2.60;2.10;;;20.60;30.70;;;;;;5135270;28;20054;-80
2022/03/12 05:34:46;;;;;;;2.00;1.80;;;20.60;30.70;;;;;;5135323;28;20051;-80
2022/03/12 05:37:11;;;;;;;2.80;1.83;;;20.60;30.70;;;;;;5116576;28;20055;-80
2022/03/12 05:39:37;;;;;;;3.00;2.00;;;20.60;30.70;;;;;;5115904;28;20146;-80
2022/03/12 05:42:05;;;;;;;2.25;2.05;;;20.60;30.70;;;;;;5135130;28;20047;-80
2022/03/12 05:44:32;;;;;;;2.83;2.33;;;20.60;30.70;;;;;;5135174;28;20047;-80
2022/03/12 05:46:58;;;;;;;2.47;1.85;;;20.60;30.70;;;;;;5135168;28;20059;-80
2022/03/12 05:49:24;;;;;;;2.35;2.05;;;20.60;30.70;;;;;;5135210;28;20043;-80
2022/03/12 05:51:49;;;;;;;1.98;1.67;;;20.60;30.70;;;;;;5135679;28;20043;-80
2022/03/12 05:54:18;;;;;;;2.60;2.10;;;20.60;30.70;;;;;;5135390;28;20096;-80
2022/03/12 05:56:44;;;;;;;2.17;1.98;;;20.60;30.70;;;;;;5116595;28;20047;-80
2022/03/12 05:59:10;;;;;;;2.63;1.80;;;20.60;30.60;;;;;;5135133;28;20051;-80
2022/03/12 06:01:35;;;;;;;2.88;2.25;;;20.60;30.60;;;;;;5135576;28;20455;-80
2022/03/12 06:04:01;;;;;;;2.03;1.60;;;20.70;30.60;;;;;;5116461;28;20082;-81
2022/03/12 06:06:29;;;;;;;2.95;2.00;;;20.80;30.50;;;;;;5135209;28;20047;-81
2022/03/12 06:08:57;;;;;;;2.70;2.00;;;20.80;30.50;;;;;;5116274;28;20497;-80
2022/03/12 06:11:25;;;;;;;2.40;1.85;;;20.90;30.40;;;;;;5135190;28;20513;-80
2022/03/12 06:13:59;;;;;;;2.10;1.83;;;20.90;30.90;;;;;;5134893;28;20058;-81
2022/03/12 06:16:25;;;;;;;2.15;1.92;;;21.00;30.30;;;;;;5116323;27;20054;-80
2022/03/12 06:18:52;;;;;;;2.08;1.85;;;21.00;30.20;;;;;;5134480;28;20130;-80
2022/03/12 06:21:18;;;;;;;2.15;1.80;;;21.10;30.20;;;;;;5134560;28;20051;-80
2022/03/12 06:23:44;;;;;;;2.00;1.80;;;21.20;30.10;;;;;;5134634;28;20057;-80
2022/03/12 06:26:15;;;;;;;2.08;1.88;;;21.20;30.00;;;;;;5134859;28;20474;-80
2022/03/12 06:28:42;;;;;;;1.30;1.15;;;21.30;30.00;;;;;;5134437;28;20051;-80
2022/03/12 06:31:10;;;;;;;2.47;1.80;;;21.30;30.00;;;;;;5134567;28;20116;-79
2022/03/12 06:33:36;;;;;;;2.33;1.83;;;21.40;30.00;;;;;;5116064;28;20130;-80
2022/03/12 06:36:02;;;;;;;2.42;1.70;;;21.40;29.90;;;;;;5134484;28;20130;-80
2022/03/12 06:38:29;;;;;;;1.70;1.60;;;21.50;29.90;;;;;;5116094;28;20100;-80
2022/03/12 06:40:58;;;;;;;2.45;1.90;;;21.50;29.80;;;;;;5134239;28;20051;-80
2022/03/12 06:43:25;;;;;;;2.20;1.80;;;21.50;29.80;;;;;;5115859;28;20058;-80
2022/03/12 06:45:50;;;;;;;2.08;1.88;;;21.60;29.80;;;;;;5134499;28;20083;-81
2022/03/12 06:48:17;;;;;;;2.25;1.90;;;21.70;29.70;;;;;;5134526;28;20485;-80
2022/03/12 06:50:43;;;;;;;2.13;1.90;;;21.70;29.70;;;;;;5134016;28;20143;-80
2022/03/12 06:53:08;;;;;;;2.40;1.80;;;21.70;29.60;;;;;;5134213;28;20055;-81
2022/03/12 06:55:34;;;;;;;1.80;1.70;;;21.70;29.60;;;;;;5116053;28;20054;-81
2022/03/12 06:57:59;;;;;;;2.35;2.15;;;21.80;29.60;;;;;;5134411;28;20043;-80
2022/03/12 07:00:28;;;;;;;1.95;1.77;;;21.80;29.50;;;;;;5113343;28;20048;-80
2022/03/12 07:02:55;;;;;;;2.00;1.80;;;21.90;29.50;;;;;;5133974;28;20050;-80
2022/03/12 07:05:21;;;;;;;2.00;1.70;;;21.80;29.90;;;;;;5133913;28;20047;-80
2022/03/12 07:07:48;;;;;;;2.03;1.83;;;21.90;29.50;;;;;;5114157;28;20051;-80
2022/03/12 07:10:13;;;;;;;2.05;1.73;;;21.90;29.40;;;;;;5133873;28;20474;-80
2022/03/12 07:12:44;;;;;;;2.10;1.90;;;21.90;29.40;;;;;;5134231;28;20067;-80
2022/03/12 07:15:14;;;;;;;2.65;2.22;;;22.00;29.40;;;;;;5134123;28;20047;-80
2022/03/12 07:17:43;;;;;;;2.22;1.92;;;22.00;29.40;;;;;;5133739;28;20058;-80
2022/03/12 07:20:10;;;;;;;2.55;1.77;;;22.00;29.40;;;;;;5133747;28;20146;-80
2022/03/12 07:22:36;;;;;;;2.17;1.73;;;22.00;29.30;;;;;;5115047;28;20164;-80
2022/03/12 07:25:03;;;;;;;2.40;1.88;;;22.10;29.30;;;;;;5115277;28;20078;-80
2022/03/12 07:27:29;;;;;;;2.13;1.88;;;22.10;29.30;;;;;;5098191;28;20093;-80
2022/03/12 07:29:55;;;;;;;2.70;2.00;;;22.10;29.20;;;;;;5133172;27;20080;-80
2022/03/12 07:32:21;;;;;;;2.35;1.70;;;22.20;29.20;;;;;;5133631;28;20126;-80
2022/03/12 07:34:48;;;;;;;2.15;1.80;;;22.20;29.20;;;;;;5133425;28;20546;-80
2022/03/12 07:37:13;;;;;;;2.42;2.15;;;22.20;29.20;;;;;;5133291;28;20395;-80
2022/03/12 07:39:39;;;;;;;2.22;2.03;;;22.20;29.20;;;;;;5114117;28;20051;-80
2022/03/12 07:42:06;;;;;;;2.00;1.80;;;22.20;29.20;;;;;;5133289;28;20082;-80
2022/03/12 07:44:31;;;;;;;2.08;1.83;;;22.20;29.10;;;;;;5115290;28;20148;-80
2022/03/12 07:46:57;;;;;;;2.65;2.10;;;22.20;29.20;;;;;;5115426;28;20139;-80
2022/03/12 07:49:25;;;;;;;2.20;1.98;;;22.20;29.10;;;;;;5114805;28;20047;-80
2022/03/12 07:51:51;;;;;;;2.00;1.88;;;22.30;29.10;;;;;;5114942;28;20050;-80
2022/03/12 07:54:16;;;;;;;2.00;1.80;;;22.20;29.10;;;;;;5133303;28;20055;-80
2022/03/12 07:56:43;;;;;;;3.05;2.28;;;22.20;29.10;;;;;;5133732;28;20451;-80
2022/03/12 07:59:10;;;;;;;2.45;1.80;;;22.20;29.20;;;;;;5113577;28;20051;-80
2022/03/12 08:01:37;;;;;;;2.30;1.90;;;22.20;29.20;;;;;;5133222;28;20039;-80
2022/03/12 08:04:05;;;;;;;2.38;1.95;;;22.10;29.20;;;;;;5133227;28;20047;-80
2022/03/12 08:06:31;;;;;;;2.17;1.95;;;22.10;29.20;;;;;;5133095;28;20055;-80
2022/03/12 08:08:57;;;;;;;2.03;1.83;;;22.10;29.30;;;;;;5114698;28;20101;-80
2022/03/12 08:11:28;;;;;;;2.72;1.88;;;22.10;29.30;;;;;;5133280;28;20394;-80
2022/03/12 08:14:12;;;;;;;2.47;2.10;;;22.10;29.30;;;;;;5114706;28;20047;-80
2022/03/12 08:16:38;;;;;;;2.10;1.90;;;22.00;29.30;;;;;;5133164;28;20412;-80
2022/03/12 08:19:06;;;;;;;1.83;1.65;;;22.00;29.30;;;;;;5133036;28;20051;-80
2022/03/12 08:21:33;;;;;;;2.33;1.77;;;22.00;29.40;;;;;;5133120;28;20047;-80
2022/03/12 08:23:59;;;;;;;2.13;1.90;;;22.00;29.40;;;;;;5114606;28;20614;-80
2022/03/12 08:26:25;;;;;;;2.30;1.90;;;22.00;29.40;;;;;;5132944;28;20486;-80
2022/03/12 08:28:51;;;;;;;2.45;1.80;;;21.90;29.30;;;;;;5132822;28;20451;-81
2022/03/12 08:31:21;;;;;;;2.22;1.83;;;21.90;29.40;;;;;;5133141;28;20438;-81
2022/03/12 08:33:47;;;;;;;2.10;1.90;;;21.90;29.40;;;;;;5133104;28;20051;-80
2022/03/12 08:36:14;;;;;;;2.30;1.92;;;21.90;29.50;;;;;;5113157;28;20451;-81
2022/03/12 08:38:45;;;;;;;2.00;1.67;;;21.80;29.90;;;;;;5132929;28;20092;-80
2022/03/12 08:41:11;;;;;;;2.20;1.58;;;21.80;29.60;;;;;;5134008;27;20075;-81
2022/03/12 08:43:38;;;;;;;1.80;1.70;;;21.80;29.60;;;;;;5117818;28;20083;-81
2022/03/12 08:46:05;;;;;;;2.50;1.90;;;21.70;29.60;;;;;;5136240;28;20081;-80
2022/03/12 08:48:32;;;;;;;1.80;1.70;;;21.60;29.60;;;;;;5136033;28;20059;-80
2022/03/12 08:50:57;;;;;;;2.08;1.88;;;21.60;29.70;;;;;;5136138;28;20047;-80
2022/03/12 08:53:23;;;;;;;2.20;1.88;;;21.50;29.70;;;;;;5117905;28;20112;-80
2022/03/12 08:55:49;;;;;;;2.58;1.95;;;21.50;29.80;;;;;;5136140;28;20096;-80
2022/03/12 08:58:15;;;;;;;1.95;1.75;;;21.40;29.80;;;;;;5100772;28;20055;-80
2022/03/12 09:00:42;;;;;;;2.17;1.98;;;21.40;29.80;;;;;;5135977;28;20051;-81
2022/03/12 09:03:09;;;;;;;2.35;1.90;;;21.40;29.90;;;;;;5135789;28;20043;-80
2022/03/12 09:05:36;;;;;;;2.40;1.88;;;21.30;29.90;;;;;;5117680;28;20059;-80
2022/03/12 09:08:02;;;;;;;1.88;1.67;;;21.30;29.90;;;;;;5135735;28;20483;-80
2022/03/12 09:10:28;;;;;;;2.47;2.00;;;21.30;30.00;;;;;;5135962;28;20074;-80
2022/03/12 09:12:54;;;;;;;2.60;1.92;;;21.30;30.00;;;;;;5117872;28;20082;-80
2022/03/12 09:15:24;;;;;;;2.17;1.98;;;21.30;30.00;;;;;;5136066;28;20133;-80
2022/03/12 09:17:51;;;;;;;2.92;2.20;;;21.20;30.00;;;;;;5135497;28;20062;-81
2022/03/12 09:20:17;;;;;;;2.15;1.88;;;21.20;30.00;;;;;;5135649;28;20047;-80
2022/03/12 09:22:43;;;;;;;2.03;1.83;;;21.20;30.00;;;;;;5117473;28;20073;-80
2022/03/12 09:25:12;;;;;;;2.03;1.67;;;21.20;30.00;;;;;;5117513;28;20425;-80
2022/03/12 09:27:39;;;;;;;2.05;1.85;;;21.20;30.00;;;;;;5117073;28;20055;-81
2022/03/12 09:30:06;;;;;;;2.47;2.13;;;21.10;30.00;;;;;;5135483;28;20503;-81
2022/03/12 09:32:31;;;;;;;2.28;2.08;;;21.20;30.00;;;;;;5117037;28;20184;-80
2022/03/12 09:34:57;;;;;;;2.65;1.90;;;21.10;30.00;;;;;;5135764;28;20051;-81
2022/03/12 09:37:23;;;;;;;2.97;2.00;;;21.10;30.00;;;;;;5116992;28;20448;-80
2022/03/12 09:39:49;;;;;;;2.47;1.80;;;21.10;30.00;;;;;;5135142;28;20070;-80
2022/03/12 09:42:15;;;;;;;2.03;1.83;;;21.10;30.00;;;;;;5099560;28;20047;-80
2022/03/12 09:44:40;;;;;;;2.05;1.85;;;21.10;30.00;;;;;;5115835;28;20047;-80
2022/03/12 09:47:07;;;;;;;2.10;1.88;;;21.20;30.00;;;;;;5135189;28;20142;-80
2022/03/12 09:49:35;;;;;;;2.28;1.95;;;21.20;30.00;;;;;;5135009;28;20523;-80
2022/03/12 09:52:01;;;;;;;2.40;1.92;;;21.20;30.00;;;;;;5134986;27;20104;-80
2022/03/12 09:54:29;;;;;;;1.80;1.70;;;21.20;30.00;;;;;;5115611;28;20048;-80
2022/03/12 09:56:55;;;;;;;2.08;1.88;;;21.20;30.00;;;;;;5135074;28;20058;-80
2022/03/12 09:59:21;;;;;;;2.15;1.92;;;21.20;30.00;;;;;;5134968;28;20054;-80
2022/03/12 10:01:46;;;;;;;2.00;1.80;;;21.20;30.00;;;;;;5134998;28;20879;-80
2022/03/12 10:04:12;;;;;;;2.15;1.77;;;21.20;30.10;;;;;;5135105;28;20085;-80
2022/03/12 10:06:40;;;;;;;2.38;1.98;;;21.20;30.00;;;;;;5117096;28;20047;-80
2022/03/12 10:09:08;;;;;;;2.13;1.92;;;21.20;30.00;;;;;;5134611;28;20551;-80
2022/03/12 10:11:34;;;;;;;1.83;1.63;;;21.20;30.00;;;;;;5135183;28;20047;-80
2022/03/12 10:13:59;;;;;;;2.05;1.70;;;21.20;30.00;;;;;;5115093;28;20532;-80
2022/03/12 10:16:25;;;;;;;2.05;1.75;;;21.20;30.00;;;;;;5116635;28;20055;-80
2022/03/12 10:18:51;;;;;;;2.20;1.67;;;21.20;30.00;;;;;;5134732;28;20051;-80
2022/03/12 10:21:17;;;;;;;2.22;2.00;;;21.20;30.00;;;;;;5116118;28;20513;-80
2022/03/12 10:23:43;;;;;;;2.05;1.85;;;21.20;30.00;;;;;;5116746;28;20050;-80
2022/03/12 10:26:09;;;;;;;1.80;1.50;;;21.20;30.00;;;;;;5134597;28;20064;-80
2022/03/12 10:28:36;;;;;;;2.85;2.10;;;21.20;30.00;;;;;;5134522;28;20059;-80
2022/03/12 10:31:07;;;;;;;1.70;1.60;;;21.20;30.00;;;;;;5114926;28;20404;-80
2022/03/12 10:33:33;;;;;;;2.20;2.00;;;21.20;30.00;;;;;;5098062;28;20048;-81
2022/03/12 10:36:16;;;;;;;2.10;1.88;;;21.20;30.00;;;;;;5134559;28;20395;-80
2022/03/12 10:38:44;;;;;;;1.70;1.60;;;21.20;30.00;;;;;;5134494;28;20505;-80
2022/03/12 10:41:10;;;;;;;2.10;1.90;;;21.20;30.00;;;;;;5134289;28;20046;-80
2022/03/12 10:43:55;;;;;;;2.00;1.80;;;21.20;30.00;;;;;;5134357;28;20047;-80
2022/03/12 10:46:24;;;;;;;1.85;1.73;;;21.20;30.00;;;;;;5116091;28;20105;-80
2022/03/12 10:48:58;;;;;;;1.70;1.58;;;21.20;30.00;;;;;;5134255;28;20066;-80
2022/03/12 10:51:27;;;;;;;2.42;1.95;;;21.20;30.00;;;;;;5115264;28;20484;-80
2022/03/12 10:54:04;;;;;;;1.95;1.50;;;21.20;30.00;;;;;;5134210;28;20121;-81
2022/03/12 10:56:42;;;;;;;2.10;1.75;;;21.20;30.10;;;;;;5111836;28;20051;-80
2022/03/12 10:59:12;;;;;;;1.85;1.75;;;21.20;30.00;;;;;;5134004;28;20050;-81
2022/03/12 11:01:45;;;;;;;1.80;1.63;;;21.20;30.10;;;;;;5115828;28;20089;-80
2022/03/12 11:04:22;;;;;;;1.85;1.75;;;21.20;30.10;;;;;;5115244;28;20364;-80
2022/03/12 11:06:52;;;;;;;2.45;1.73;;;21.20;30.00;;;;;;5134328;28;20058;-80
2022/03/12 11:09:35;;;;;;;2.20;2.00;;;21.20;30.00;;;;;;5113878;28;20454;-80
2022/03/12 11:12:00;;;;;;;1.92;1.70;;;21.20;30.00;;;;;;5133801;28;20082;-80
2022/03/12 11:14:29;;;;;;;2.05;1.85;;;21.20;30.10;;;;;;5133832;28;20396;-80
2022/03/12 11:16:55;;;;;;;1.88;1.70;;;21.20;30.00;;;;;;5133877;28;20055;-80
2022/03/12 11:19:40;;;;;;;2.15;1.92;;;21.20;30.00;;;;;;5096578;28;20103;-80
2022/03/12 11:22:14;;;;;;;2.05;1.67;;;21.20;30.10;;;;;;5115662;28;20054;-80
2022/03/12 11:24:48;;;;;;;2.00;1.80;;;21.20;30.10;;;;;;5133866;28;20498;-80
2022/03/12 11:27:28;;;;;;;2.25;1.92;;;21.20;30.60;;;;;;5114697;28;20052;-80
2022/03/12 11:29:57;;;;;;;2.45;1.90;;;21.20;30.00;;;;;;5133650;28;20051;-80
2022/03/12 11:32:23;;;;;;;2.25;2.05;;;21.20;30.10;;;;;;5133554;28;20540;-80
2022/03/12 11:34:49;;;;;;;2.17;1.98;;;21.10;30.00;;;;;;5133614;28;20074;-80
2022/03/12 11:37:21;;;;;;;2.20;2.00;;;21.20;30.10;;;;;;5133125;28;20466;-80
2022/03/12 11:39:52;;;;;;;2.63;2.05;;;21.10;30.10;;;;;;5133480;28;20134;-80
2022/03/12 11:42:26;;;;;;;;;;;21.10;30.10;;;;;;5133613;28;20078;-80
2022/03/12 11:44:54;;;;;;;1.88;1.65;;;21.20;30.10;;;;;;5115389;28;19915;-80
2022/03/12 11:47:27;;;;;;;2.30;2.10;;;21.10;30.10;;;;;;5133330;28;20054;-80
2022/03/12 11:49:56;;;;;;;2.00;1.80;;;21.20;30.10;;;;;;5133412;28;20070;-80
2022/03/12 11:52:23;;;;;;;2.35;1.90;;;21.10;30.10;;;;;;5133329;28;20051;-80
2022/03/12 11:54:54;;;;;;;2.35;2.03;;;21.10;30.10;;;;;;5113071;28;20551;-80
2022/03/12 11:57:27;;;;;;;2.53;2.08;;;21.10;30.10;;;;;;5133091;28;20055;-80
2022/03/12 11:59:53;;;;;;;2.10;1.90;;;21.10;30.20;;;;;;5133230;28;20398;-80
2022/03/12 12:02:30;;;;;;;2.40;2.15;;;21.10;30.20;;;;;;5132842;28;20211;-80
2022/03/12 12:04:58;;;;;;;2.45;2.20;;;21.00;30.20;;;;;;5114739;28;20510;-80
2022/03/12 12:07:34;;;;;;;2.33;2.13;;;21.00;30.20;;;;;;5132996;28;20075;-80
2022/03/12 12:10:00;;;;;;;2.33;2.08;;;20.90;30.20;;;;;;5113066;28;20047;-80
2022/03/12 12:12:32;;;;;;;3.17;2.10;;;21.00;30.30;;;;;;5114521;28;20067;-80
2022/03/12 12:14:58;;;;;;;2.58;2.00;;;20.90;30.30;;;;;;5134256;27;20444;-80
2022/03/12 12:17:24;;;;;;;2.30;2.10;;;20.90;30.40;;;;;;5136336;28;20059;-80
2022/03/12 12:19:51;;;;;;;2.25;1.65;;;20.90;30.40;;;;;;5136175;28;20063;-80
2022/03/12 12:22:18;;;;;;;2.00;1.73;;;20.90;30.40;;;;;;5136538;28;20051;-80
2022/03/12 12:24:44;;;;;;;2.35;2.15;;;20.90;30.40;;;;;;5136157;28;20130;-80
2022/03/12 12:27:12;;;;;;;2.10;1.90;;;20.80;30.40;;;;;;5136177;28;20059;-80
2022/03/12 12:29:40;;;;;;;2.00;1.80;;;20.90;30.40;;;;;;5136058;28;20495;-80
2022/03/12 12:32:11;;;;;;;2.60;1.83;;;20.80;30.40;;;;;;5116125;28;20048;-80
2022/03/12 12:34:56;;;;;;;1.80;1.70;;;20.80;30.50;;;;;;5136119;28;20159;-80
2022/03/12 12:37:39;;;;;;;1.75;1.63;;;20.80;31.00;;;;;;5132526;28;20285;-80
2022/03/12 12:40:31;;;;;;;1.70;1.60;;;20.80;30.40;;;;;;5117077;28;20046;-80
2022/03/12 12:43:05;;;;;;;2.20;1.60;;;20.80;30.50;;;;;;5136567;28;20074;-80
2022/03/12 12:45:36;;;;;;;1.98;1.70;;;20.80;30.50;;;;;;5136294;28;20460;-80
2022/03/12 12:48:16;;;;;;;2.10;1.90;;;20.70;30.40;;;;;;5135793;28;20085;-80
2022/03/12 12:51:21;;;;;;;2.28;1.90;;;20.70;30.50;;;;;;5117581;28;20065;-80
2022/03/12 12:53:48;;;;;;;2.28;1.98;;;20.70;30.50;;;;;;5136104;28;20043;-80